• Join FlightAware (Why Join?)
  • Login
  • US Flag 
05:27PM EDT


 

Airport Tracker/Info


-or-


 

Live Flight TrackerFlight Track Log ✈ CTL18 ✈ 16-Apr-2013 ✈ KMBS - KYIP

Flight Track Log - Related Links

Times and Time Zones

All times are in EDT time to prevent confusion due to time zone crossing. See the CTL18 flight status page for this flight to view local times or setup timezone preferences in your user account.

Time Position Orientation Groundspeed Altitude Reporting Facility
EDT Latitude Longitude Course Direction KTS MPH feet Rate Location/Type
07:40PM 43.3619 -84.0057 160° South  Level Estimated
07:41PM 43.3366 -83.9838 148° Southeast  Level FlightAware Approximate
07:42PM 43.3080 -83.9718 160° South  Level Estimated
07:43PM 43.2807 -83.9553 156° South  Level FlightAware Approximate
07:44PM 43.2533 -83.9388 156° South  Level FlightAware Approximate
07:45PM 43.2247 -83.9271 163° South  Level Estimated
07:46PM 43.1965 -83.9134 161° South  Level FlightAware Approximate
07:47PM 43.1683 -83.8997 161° South  Level FlightAware Approximate
07:48PM 43.1401 -83.8861 161° South  Level FlightAware Approximate
07:49PM 43.1115 -83.8746 160° South  Level Estimated
07:50PM 43.0835 -83.8603 160° South  Level FlightAware Approximate
07:50PM 42.8814 -83.7539 161° South 179 206 5,000  Level Cleveland Center
07:51PM 43.0555 -83.8461 160° South  Level FlightAware Approximate
07:51PM 42.8278 -83.7342 165° South 177 204 5,000  Level Cleveland Center
07:52PM 43.0275 -83.8318 160° South  Level FlightAware Approximate
07:52PM 42.7783 -83.7147 164° South 177 204 5,000  Level Cleveland Center
07:53PM 42.9995 -83.8176 160° South  Level FlightAware Approximate
07:53PM 42.7222 -83.7006 169° South 178 205 5,000  Level Cleveland Center
07:54PM 42.9715 -83.8033 160° South  Level FlightAware Approximate
07:54PM 42.6769 -83.6814 163° South 176 203 5,000  Level Cleveland Center
07:55PM 42.9435 -83.7891 160° South  Level FlightAware Approximate
07:55PM 42.6294 -83.6678 168° South 178 205 4,800  Level Cleveland Center
07:56PM 42.5756 -83.6511 167° South 190 219 4,400 -480 Descending Cleveland Center
07:57PM 42.5239 -83.6372 169° South 187 215 3,900 -300 Descending Cleveland Center
07:58PM 42.4744 -83.6150 162° South 173 199 3,900 -60 Level Cleveland Center
08:00PM 42.4250 -83.5958 164° South 183 211 3,800 -180 Descending Cleveland Center
08:01PM 42.3775 -83.5767 163° South 183 211 3,600 -300 Descending Cleveland Center
08:02PM 42.3264 -83.5378 151° Southeast 183 211 3,200 -360 Descending Cleveland Center
08:03PM 42.2964 -83.4914 131° Southeast 165 190 2,900 -780 Descending Cleveland Center
08:04PM 42.2625 -83.5039 195° South 123 142 1,800 -1,200 Descending Cleveland Center
08:06PM 42.2333 -83.5167 160° South  Level FlightAware Approximate
08:13PM 42.2393 -83.5310 160° South  Level Estimated
08:14PM 42.2393 -83.5310 160° South  Level Estimated